This is the latest recevied weather packets stored in our database for station/object KJ4HF. If no packets are shown the sender has not sent any weather packets the latest 10 day(s).
| Time | Temp. | Humidity | Pressure | Rain* | Wind** | Luminosity | Snow |
|---|---|---|---|---|---|---|---|
| 1777782942 | 5° C | 88% | 1016 hPa | 0 mm | - | 0 W/m² | - |
| 1777781142 | 5.56° C | 86% | 1015.7 hPa | 0 mm | - | 0 W/m² | - |
| 1777780543 | 5.56° C | 86% | 1015.7 hPa | 0 mm | - | 0 W/m² | - |
| 1777778742 | 6.11° C | 84% | 1015.7 hPa | 0 mm | - | 0 W/m² | - |
| 1777778442 | 6.11° C | 83% | 1015.7 hPa | 0 mm | - | 0 W/m² | - |
| 1777777842 | 6.67° C | 82% | 1015.5 hPa | 0 mm | - | 0 W/m² | - |
| 1777776353 | 6.67° C | 81% | 1015.4 hPa | 0 mm | - | 0 W/m² | - |
| 1777774559 | 7.78° C | 78% | 1015.3 hPa | 0 mm | - | 0 W/m² | - |
| 1777774243 | 7.78° C | 76% | 1015.2 hPa | 0 mm | - | 0 W/m² | - |
| 1777773943 | 7.78° C | 76% | 1015.1 hPa | 0 mm | - | 0 W/m² | - |
| 1777773651 | 7.78° C | 76% | 1014.9 hPa | 0 mm | - | 0 W/m² | - |
| 1777767944 | 11.11° C | 63% | 1013.3 hPa | 0 mm | - | 0 W/m² | - |
| 1777766453 | 12.22° C | 57% | 1013 hPa | 0 mm | - | 0 W/m² | - |
| 1777764943 | 13.33° C | 51% | 1012.7 hPa | 0 mm | - | 18 W/m² | - |
| 1777761342 | 14.44° C | 42% | 1012 hPa | 0 mm | - | 46 W/m² | - |
| 1777761048 | 14.44° C | 41% | 1012 hPa | 0 mm | - | 72 W/m² | - |
| 1777760152 | 15° C | 40% | 1011.9 hPa | 0 mm | - | 330 W/m² | - |
| 1777759254 | 15.56° C | 39% | 1011.7 hPa | 0 mm | - | 360 W/m² | - |
| 1777756551 | 16.11° C | 38% | 1011.5 hPa | 0 mm | - | 759 W/m² | - |
| 1777756242 | 16.11° C | 35% | 1011.7 hPa | 0 mm | - | 810 W/m² | - |
| 1777755943 | 15.56° C | 37% | 1011.5 hPa | 0 mm | - | 826 W/m² | - |
| 1777754445 | 16.11° C | 39% | 1011.6 hPa | 0 mm | - | 807 W/m² | - |
| 1777754142 | 16.11° C | 35% | 1011.8 hPa | 0 mm | - | 990 W/m² | - |
| 1777752950 | 15° C | 40% | 1012 hPa | 0 mm | - | 376 W/m² | - |
| 1777751166 | 15° C | 43% | 1012.4 hPa | 0 mm | - | 410 W/m² | - |
* Rain latest hour (hover to see other rain measurements)
** Current wind speed in m/s (hover to see current wind gust speed)